sensor_id;sensor_type;location;lat;lon;timestamp;pressure;altitude;pressure_sealevel;temperature
67966;BMP280;54749;47.850;9.002;2023-03-14T00:01:16;94553.94;;;9.06
67966;BMP280;54749;47.850;9.002;2023-03-14T00:03:43;94523.72;;;9.06
67966;BMP280;54749;47.850;9.002;2023-03-14T00:06:11;94513.63;;;9.06
67966;BMP280;54749;47.850;9.002;2023-03-14T00:08:40;94503.56;;;9.06
67966;BMP280;54749;47.850;9.002;2023-03-14T00:11:16;94511.00;;;9.07
67966;BMP280;54749;47.850;9.002;2023-03-14T00:13:43;94513.63;;;9.06
67966;BMP280;54749;47.850;9.002;2023-03-14T00:16:12;94493.47;;;9.06
67966;BMP280;54749;47.850;9.002;2023-03-14T00:18:40;94487.16;;;9.02
67966;BMP280;54749;47.850;9.002;2023-03-14T00:21:08;94479.88;;;8.99
67966;BMP280;54749;47.850;9.002;2023-03-14T00:23:38;94492.47;;;8.99
67966;BMP280;54749;47.850;9.002;2023-03-14T00:26:14;94432.94;;;8.98
67966;BMP280;54749;47.850;9.002;2023-03-14T00:28:43;94456.53;;;8.97
67966;BMP280;54749;47.850;9.002;2023-03-14T00:31:13;94450.88;;;8.95
67966;BMP280;54749;47.850;9.002;2023-03-14T00:33:42;94444.53;;;8.91
67966;BMP280;54749;47.850;9.002;2023-03-14T00:36:12;94455.66;;;8.89
67966;BMP280;54749;47.850;9.002;2023-03-14T00:38:41;94477.53;;;8.88
67966;BMP280;54749;47.850;9.002;2023-03-14T00:41:10;94437.41;;;8.87
67966;BMP280;54749;47.850;9.002;2023-03-14T00:43:39;94453.31;;;8.87
67966;BMP280;54749;47.850;9.002;2023-03-14T00:46:06;94424.94;;;8.85
67966;BMP280;54749;47.850;9.002;2023-03-14T00:48:34;94411.34;;;8.78
67966;BMP280;54749;47.850;9.002;2023-03-14T00:51:02;94431.91;;;8.74
67966;BMP280;54749;47.850;9.002;2023-03-14T00:53:29;94402.75;;;8.72
67966;BMP280;54749;47.850;9.002;2023-03-14T00:55:56;94410.44;;;8.70
67966;BMP280;54749;47.850;9.002;2023-03-14T00:58:24;94369.66;;;8.67
67966;BMP280;54749;47.850;9.002;2023-03-14T01:00:50;94388.34;;;8.64
67966;BMP280;54749;47.850;9.002;2023-03-14T01:03:18;94389.41;;;8.62
67966;BMP280;54749;47.850;9.002;2023-03-14T01:05:45;94382.94;;;8.59
67966;BMP280;54749;47.850;9.002;2023-03-14T01:08:12;94384.97;;;8.56
67966;BMP280;54749;47.850;9.002;2023-03-14T01:10:40;94397.03;;;8.53
67966;BMP280;54749;47.850;9.002;2023-03-14T01:13:08;94414.50;;;8.54
67966;BMP280;54749;47.850;9.002;2023-03-14T01:15:36;94383.50;;;8.54
67966;BMP280;54749;47.850;9.002;2023-03-14T01:18:04;94398.59;;;8.54
67966;BMP280;54749;47.850;9.002;2023-03-14T01:20:31;94412.66;;;8.56
67966;BMP280;54749;47.850;9.002;2023-03-14T01:22:58;94394.09;;;8.57
67966;BMP280;54749;47.850;9.002;2023-03-14T01:25:25;94380.56;;;8.58
67966;BMP280;54749;47.850;9.002;2023-03-14T01:27:52;94384.03;;;8.57
67966;BMP280;54749;47.850;9.002;2023-03-14T01:30:19;94359.63;;;8.57
67966;BMP280;54749;47.850;9.002;2023-03-14T01:32:46;94375.53;;;8.58
67966;BMP280;54749;47.850;9.002;2023-03-14T01:35:13;94375.53;;;8.58
67966;BMP280;54749;47.850;9.002;2023-03-14T01:37:40;94357.66;;;8.61
67966;BMP280;54749;47.850;9.002;2023-03-14T01:40:13;94362.50;;;8.62
67966;BMP280;54749;47.850;9.002;2023-03-14T01:42:54;94349.78;;;8.64
67966;BMP280;54749;47.850;9.002;2023-03-14T01:48:28;94337.22;;;8.64
67966;BMP280;54749;47.850;9.002;2023-03-14T01:50:59;94332.97;;;8.64
67966;BMP280;54749;47.850;9.002;2023-03-14T01:53:27;94335.31;;;8.66
67966;BMP280;54749;47.850;9.002;2023-03-14T01:55:55;94343.97;;;8.63
67966;BMP280;54749;47.850;9.002;2023-03-14T01:58:27;94339.72;;;8.64
67966;BMP280;54749;47.850;9.002;2023-03-14T02:00:57;94315.91;;;8.58
67966;BMP280;54749;47.850;9.002;2023-03-14T02:03:25;94287.59;;;8.57
67966;BMP280;54749;47.850;9.002;2023-03-14T02:05:55;94305.34;;;8.55
67966;BMP280;54749;47.850;9.002;2023-03-14T02:08:23;94303.91;;;8.53
67966;BMP280;54749;47.850;9.002;2023-03-14T02:10:58;94308.28;;;8.51
67966;BMP280;54749;47.850;9.002;2023-03-14T02:13:46;94322.50;;;8.42
67966;BMP280;54749;47.850;9.002;2023-03-14T02:16:25;94313.66;;;8.39
67966;BMP280;54749;47.850;9.002;2023-03-14T02:19:30;94293.03;;;8.35
67966;BMP280;54749;47.850;9.002;2023-03-14T02:22:12;94295.97;;;8.31
67966;BMP280;54749;47.850;9.002;2023-03-14T02:27:39;94290.47;;;8.18
67966;BMP280;54749;47.850;9.002;2023-03-14T02:30:17;94308.53;;;8.14
67966;BMP280;54749;47.850;9.002;2023-03-14T02:32:54;94306.94;;;8.13
67966;BMP280;54749;47.850;9.002;2023-03-14T02:35:24;94313.19;;;8.09
67966;BMP280;54749;47.850;9.002;2023-03-14T02:38:22;94320.84;;;8.07
67966;BMP280;54749;47.850;9.002;2023-03-14T02:40:51;94307.59;;;8.05
67966;BMP280;54749;47.850;9.002;2023-03-14T02:43:19;94292.69;;;8.04
67966;BMP280;54749;47.850;9.002;2023-03-14T02:45:52;94319.69;;;8.02
67966;BMP280;54749;47.850;9.002;2023-03-14T02:48:26;94285.50;;;8.09
67966;BMP280;54749;47.850;9.002;2023-03-14T02:50:56;94277.16;;;8.08
67966;BMP280;54749;47.850;9.002;2023-03-14T02:53:26;94290.38;;;8.10
67966;BMP280;54749;47.850;9.002;2023-03-14T02:55:57;94284.13;;;8.14
67966;BMP280;54749;47.850;9.002;2023-03-14T02:58:25;94282.91;;;8.18
67966;BMP280;54749;47.850;9.002;2023-03-14T03:00:59;94273.50;;;8.20
67966;BMP280;54749;47.850;9.002;2023-03-14T03:03:26;94260.28;;;8.18
67966;BMP280;54749;47.850;9.002;2023-03-14T03:05:55;94269.56;;;8.18
67966;BMP280;54749;47.850;9.002;2023-03-14T03:08:24;94266.09;;;8.19
67966;BMP280;54749;47.850;9.002;2023-03-14T03:10:52;94261.22;;;8.17
67966;BMP280;54749;47.850;9.002;2023-03-14T03:13:19;94251.16;;;8.17
67966;BMP280;54749;47.850;9.002;2023-03-14T03:15:50;94243.13;;;8.14
67966;BMP280;54749;47.850;9.002;2023-03-14T03:18:18;94243.25;;;8.12
67966;BMP280;54749;47.850;9.002;2023-03-14T03:20:45;94254.22;;;8.11
67966;BMP280;54749;47.850;9.002;2023-03-14T03:23:12;94246.97;;;8.08
67966;BMP280;54749;47.850;9.002;2023-03-14T03:25:40;94265.38;;;8.09
67966;BMP280;54749;47.850;9.002;2023-03-14T03:28:07;94262.19;;;8.07
67966;BMP280;54749;47.850;9.002;2023-03-14T03:30:41;94235.34;;;8.07
67966;BMP280;54749;47.850;9.002;2023-03-14T03:33:08;94255.31;;;8.09
67966;BMP280;54749;47.850;9.002;2023-03-14T03:35:45;94261.78;;;8.11
67966;BMP280;54749;47.850;9.002;2023-03-14T03:38:14;94277.78;;;8.10
67966;BMP280;54749;47.850;9.002;2023-03-14T03:40:42;94265.38;;;8.09
67966;BMP280;54749;47.850;9.002;2023-03-14T03:43:10;94253.06;;;8.06
67966;BMP280;54749;47.850;9.002;2023-03-14T03:45:41;94265.13;;;8.03
67966;BMP280;54749;47.850;9.002;2023-03-14T03:48:08;94236.31;;;7.97
67966;BMP280;54749;47.850;9.002;2023-03-14T03:50:35;94265.66;;;7.97
67966;BMP280;54749;47.850;9.002;2023-03-14T03:53:02;94243.97;;;7.96
67966;BMP280;54749;47.850;9.002;2023-03-14T03:55:29;94256.81;;;7.93
67966;BMP280;54749;47.850;9.002;2023-03-14T03:57:56;94250.34;;;7.90
67966;BMP280;54749;47.850;9.002;2023-03-14T04:00:23;94247.34;;;7.87
67966;BMP280;54749;47.850;9.002;2023-03-14T04:02:50;94232.38;;;7.86
67966;BMP280;54749;47.850;9.002;2023-03-14T04:05:18;94246.16;;;7.82
67966;BMP280;54749;47.850;9.002;2023-03-14T04:07:54;94252.00;;;7.82
67966;BMP280;54749;47.850;9.002;2023-03-14T04:10:24;94240.34;;;7.81
67966;BMP280;54749;47.850;9.002;2023-03-14T04:13:04;94245.38;;;7.81
67966;BMP280;54749;47.850;9.002;2023-03-14T04:15:33;94241.13;;;7.82
67966;BMP280;54749;47.850;9.002;2023-03-14T04:18:05;94218.13;;;7.77
67966;BMP280;54749;47.850;9.002;2023-03-14T04:20:34;94249.91;;;7.78
67966;BMP280;54749;47.850;9.002;2023-03-14T04:23:02;94229.78;;;7.78
67966;BMP280;54749;47.850;9.002;2023-03-14T04:25:29;94222.38;;;7.76
67966;BMP280;54749;47.850;9.002;2023-03-14T04:27:58;94228.31;;;7.75
67966;BMP280;54749;47.850;9.002;2023-03-14T04:30:28;94195.66;;;7.75
67966;BMP280;54749;47.850;9.002;2023-03-14T04:33:02;94192.34;;;7.75
67966;BMP280;54749;47.850;9.002;2023-03-14T04:35:32;94195.81;;;7.74
67966;BMP280;54749;47.850;9.002;2023-03-14T04:38:03;94196.59;;;7.74
67966;BMP280;54749;47.850;9.002;2023-03-14T04:40:32;94190.34;;;7.78
67966;BMP280;54749;47.850;9.002;2023-03-14T04:43:03;94212.03;;;7.79
67966;BMP280;54749;47.850;9.002;2023-03-14T04:45:31;94200.25;;;7.80
67966;BMP280;54749;47.850;9.002;2023-03-14T04:47:59;94211.38;;;7.77
67966;BMP280;54749;47.850;9.002;2023-03-14T04:50:27;94219.06;;;7.76
67966;BMP280;54749;47.850;9.002;2023-03-14T04:52:54;94198.03;;;7.77
67966;BMP280;54749;47.850;9.002;2023-03-14T04:55:22;94196.94;;;7.79
67966;BMP280;54749;47.850;9.002;2023-03-14T04:57:50;94188.97;;;7.84
67966;BMP280;54749;47.850;9.002;2023-03-14T05:00:18;94191.06;;;7.88
67966;BMP280;54749;47.850;9.002;2023-03-14T05:03:08;94176.69;;;8.07
67966;BMP280;54749;47.850;9.002;2023-03-14T05:06:05;94184.72;;;8.27
67966;BMP280;54749;47.850;9.002;2023-03-14T05:08:41;94183.72;;;8.38
67966;BMP280;54749;47.850;9.002;2023-03-14T05:11:21;94190.34;;;8.39
67966;BMP280;54749;47.850;9.002;2023-03-14T05:13:56;94178.41;;;8.23
67966;BMP280;54749;47.850;9.002;2023-03-14T05:16:43;94168.72;;;8.11
67966;BMP280;54749;47.850;9.002;2023-03-14T05:19:10;94157.66;;;8.05
67966;BMP280;54749;47.850;9.002;2023-03-14T05:21:55;94154.00;;;7.99
67966;BMP280;54749;47.850;9.002;2023-03-14T05:24:45;94152.66;;;7.95
67966;BMP280;54749;47.850;9.002;2023-03-14T05:27:36;94133.91;;;7.90
67966;BMP280;54749;47.850;9.002;2023-03-14T05:30:22;94140.50;;;7.91
67966;BMP280;54749;47.850;9.002;2023-03-14T05:33:08;94163.41;;;7.88
67966;BMP280;54749;47.850;9.002;2023-03-14T05:35:49;94145.31;;;7.85
67966;BMP280;54749;47.850;9.002;2023-03-14T05:38:34;94133.81;;;7.82
67966;BMP280;54749;47.850;9.002;2023-03-14T05:41:14;94109.91;;;7.78
67966;BMP280;54749;47.850;9.002;2023-03-14T05:43:56;94145.91;;;7.79
67966;BMP280;54749;47.850;9.002;2023-03-14T05:46:34;94119.81;;;7.80
67966;BMP280;54749;47.850;9.002;2023-03-14T05:49:25;94113.97;;;7.79
67966;BMP280;54749;47.850;9.002;2023-03-14T05:51:58;94084.09;;;7.76
67966;BMP280;54749;47.850;9.002;2023-03-14T05:54:51;94101.72;;;7.76
67966;BMP280;54749;47.850;9.002;2023-03-14T05:57:36;94099.50;;;7.73
67966;BMP280;54749;47.850;9.002;2023-03-14T06:00:32;94108.09;;;7.71
67966;BMP280;54749;47.850;9.002;2023-03-14T06:03:27;94079.81;;;7.69
67966;BMP280;54749;47.850;9.002;2023-03-14T06:05:55;94090.66;;;7.69
67966;BMP280;54749;47.850;9.002;2023-03-14T06:08:23;94066.44;;;7.69
67966;BMP280;54749;47.850;9.002;2023-03-14T06:10:52;94056.75;;;7.73
67966;BMP280;54749;47.850;9.002;2023-03-14T06:13:24;94058.84;;;7.78
67966;BMP280;54749;47.850;9.002;2023-03-14T06:15:51;94055.72;;;7.84
67966;BMP280;54749;47.850;9.002;2023-03-14T06:18:18;94069.75;;;7.86
67966;BMP280;54749;47.850;9.002;2023-03-14T06:20:45;94050.13;;;7.89
67966;BMP280;54749;47.850;9.002;2023-03-14T06:23:21;94049.69;;;7.94
67966;BMP280;54749;47.850;9.002;2023-03-14T06:25:48;94054.44;;;7.97
67966;BMP280;54749;47.850;9.002;2023-03-14T06:28:16;94043.97;;;8.01
67966;BMP280;54749;47.850;9.002;2023-03-14T06:30:44;94054.69;;;8.03
67966;BMP280;54749;47.850;9.002;2023-03-14T06:33:13;94072.34;;;8.11
67966;BMP280;54749;47.850;9.002;2023-03-14T06:35:41;94045.81;;;8.16
67966;BMP280;54749;47.850;9.002;2023-03-14T06:38:08;94068.50;;;8.24
67966;BMP280;54749;47.850;9.002;2023-03-14T06:40:36;94069.78;;;8.28
67966;BMP280;54749;47.850;9.002;2023-03-14T06:43:10;94071.09;;;8.32
67966;BMP280;54749;47.850;9.002;2023-03-14T06:45:40;94078.97;;;8.37
67966;BMP280;54749;47.850;9.002;2023-03-14T06:48:07;94073.31;;;8.35
67966;BMP280;54749;47.850;9.002;2023-03-14T06:50:44;94065.47;;;8.38
67966;BMP280;54749;47.850;9.002;2023-03-14T06:53:12;94056.34;;;8.37
67966;BMP280;54749;47.850;9.002;2023-03-14T06:55:42;94065.97;;;8.41
67966;BMP280;54749;47.850;9.002;2023-03-14T06:58:10;94066.97;;;8.48
67966;BMP280;54749;47.850;9.002;2023-03-14T07:00:43;94075.00;;;8.51
67966;BMP280;54749;47.850;9.002;2023-03-14T07:03:13;94071.09;;;8.57
67966;BMP280;54749;47.850;9.002;2023-03-14T07:05:44;94064.66;;;8.62
67966;BMP280;54749;47.850;9.002;2023-03-14T07:08:10;94079.19;;;8.68
67966;BMP280;54749;47.850;9.002;2023-03-14T07:10:38;94073.25;;;8.76
67966;BMP280;54749;47.850;9.002;2023-03-14T07:13:06;94066.06;;;8.81
67966;BMP280;54749;47.850;9.002;2023-03-14T07:15:43;94074.91;;;8.93
67966;BMP280;54749;47.850;9.002;2023-03-14T07:18:10;94076.88;;;9.07
67966;BMP280;54749;47.850;9.002;2023-03-14T07:20:36;94267.41;;;9.32
67966;BMP280;54749;47.850;9.002;2023-03-14T07:23:04;94256.50;;;9.57
67966;BMP280;54749;47.850;9.002;2023-03-14T07:25:40;94219.16;;;10.25
67966;BMP280;54749;47.850;9.002;2023-03-14T07:28:08;94224.56;;;11.31
67966;BMP280;54749;47.850;9.002;2023-03-14T07:30:37;94195.91;;;12.51
67966;BMP280;54749;47.850;9.002;2023-03-14T07:33:11;94206.06;;;13.45
67966;BMP280;54749;47.850;9.002;2023-03-14T07:35:38;94188.72;;;13.84
67966;BMP280;54749;47.850;9.002;2023-03-14T07:38:05;94200.31;;;13.00
67966;BMP280;54749;47.850;9.002;2023-03-14T07:40:37;94209.72;;;12.70
67966;BMP280;54749;47.850;9.002;2023-03-14T07:43:06;94196.97;;;13.36
67966;BMP280;54749;47.850;9.002;2023-03-14T07:45:47;94184.69;;;14.58
67966;BMP280;54749;47.850;9.002;2023-03-14T07:48:24;94167.28;;;15.89
67966;BMP280;54749;47.850;9.002;2023-03-14T07:50:54;94157.16;;;16.48
67966;BMP280;54749;47.850;9.002;2023-03-14T07:53:22;94152.56;;;17.08
67966;BMP280;54749;47.850;9.002;2023-03-14T07:55:51;94170.06;;;17.04
67966;BMP280;54749;47.850;9.002;2023-03-14T07:58:19;94161.94;;;17.77
67966;BMP280;54749;47.850;9.002;2023-03-14T08:00:46;94160.31;;;18.50
67966;BMP280;54749;47.850;9.002;2023-03-14T08:03:13;94153.63;;;19.16
67966;BMP280;54749;47.850;9.002;2023-03-14T08:05:40;94167.09;;;19.29
67966;BMP280;54749;47.850;9.002;2023-03-14T08:08:09;94167.63;;;19.37
67966;BMP280;54749;47.850;9.002;2023-03-14T08:10:36;94187.03;;;18.60
67966;BMP280;54749;47.850;9.002;2023-03-14T08:13:03;94203.41;;;17.53
67966;BMP280;54749;47.850;9.002;2023-03-14T08:15:30;94198.91;;;17.05
67966;BMP280;54749;47.850;9.002;2023-03-14T08:17:58;94201.16;;;16.68
67966;BMP280;54749;47.850;9.002;2023-03-14T08:20:28;94192.78;;;18.50
67966;BMP280;54749;47.850;9.002;2023-03-14T08:23:00;94192.88;;;18.74
67966;BMP280;54749;47.850;9.002;2023-03-14T08:25:28;94191.03;;;17.32
67966;BMP280;54749;47.850;9.002;2023-03-14T08:27:56;94211.38;;;16.75
67966;BMP280;54749;47.850;9.002;2023-03-14T08:30:23;94222.91;;;15.79
67966;BMP280;54749;47.850;9.002;2023-03-14T08:32:50;94218.16;;;15.97
67966;BMP280;54749;47.850;9.002;2023-03-14T08:35:17;94210.69;;;16.02
67966;BMP280;54749;47.850;9.002;2023-03-14T08:37:45;94222.22;;;15.38
67966;BMP280;54749;47.850;9.002;2023-03-14T08:40:12;94216.22;;;15.25
67966;BMP280;54749;47.850;9.002;2023-03-14T08:42:39;94207.00;;;15.77
67966;BMP280;54749;47.850;9.002;2023-03-14T08:45:08;94215.13;;;15.87
67966;BMP280;54749;47.850;9.002;2023-03-14T08:47:35;94193.38;;;17.01
67966;BMP280;54749;47.850;9.002;2023-03-14T08:50:04;94211.09;;;17.60
67966;BMP280;54749;47.850;9.002;2023-03-14T08:52:32;94207.16;;;17.57
67966;BMP280;54749;47.850;9.002;2023-03-14T08:54:59;94215.00;;;17.12
67966;BMP280;54749;47.850;9.002;2023-03-14T08:57:26;94231.75;;;15.83
67966;BMP280;54749;47.850;9.002;2023-03-14T08:59:55;94239.34;;;15.50
67966;BMP280;54749;47.850;9.002;2023-03-14T09:02:23;94246.78;;;15.52
67966;BMP280;54749;47.850;9.002;2023-03-14T09:04:51;94246.22;;;16.49
67966;BMP280;54749;47.850;9.002;2023-03-14T09:07:19;94238.94;;;16.92
67966;BMP280;54749;47.850;9.002;2023-03-14T09:09:46;94242.50;;;16.06
67966;BMP280;54749;47.850;9.002;2023-03-14T09:12:13;94240.75;;;15.79
67966;BMP280;54749;47.850;9.002;2023-03-14T09:14:40;94248.34;;;16.00
67966;BMP280;54749;47.850;9.002;2023-03-14T09:17:07;94258.31;;;15.48
67966;BMP280;54749;47.850;9.002;2023-03-14T09:19:34;94265.66;;;15.57
67966;BMP280;54749;47.850;9.002;2023-03-14T09:22:01;94270.28;;;15.07
67966;BMP280;54749;47.850;9.002;2023-03-14T09:24:29;94262.97;;;14.83
67966;BMP280;54749;47.850;9.002;2023-03-14T09:26:56;94279.19;;;14.34
67966;BMP280;54749;47.850;9.002;2023-03-14T09:29:24;94280.97;;;13.91
67966;BMP280;54749;47.850;9.002;2023-03-14T09:31:51;94289.34;;;13.77
67966;BMP280;54749;47.850;9.002;2023-03-14T09:34:19;94298.75;;;13.19
67966;BMP280;54749;47.850;9.002;2023-03-14T09:36:46;94300.88;;;13.08
67966;BMP280;54749;47.850;9.002;2023-03-14T09:39:13;94291.19;;;12.89
67966;BMP280;54749;47.850;9.002;2023-03-14T09:41:43;94298.97;;;12.88
67966;BMP280;54749;47.850;9.002;2023-03-14T09:44:15;94302.56;;;12.71
67966;BMP280;54749;47.850;9.002;2023-03-14T09:46:45;94296.66;;;12.41
67966;BMP280;54749;47.850;9.002;2023-03-14T09:49:25;94319.41;;;12.49
67966;BMP280;54749;47.850;9.002;2023-03-14T09:51:56;94312.69;;;12.26
67966;BMP280;54749;47.850;9.002;2023-03-14T09:55:04;94314.31;;;12.57
67966;BMP280;54749;47.850;9.002;2023-03-14T09:57:34;94302.38;;;12.73
67966;BMP280;54749;47.850;9.002;2023-03-14T10:00:15;94306.41;;;12.60
67966;BMP280;54749;47.850;9.002;2023-03-14T10:02:47;94304.66;;;12.90
67966;BMP280;54749;47.850;9.002;2023-03-14T10:05:19;94311.25;;;12.98
67966;BMP280;54749;47.850;9.002;2023-03-14T10:07:46;94299.84;;;12.95
67966;BMP280;54749;47.850;9.002;2023-03-14T10:10:18;94300.75;;;12.79
67966;BMP280;54749;47.850;9.002;2023-03-14T10:12:47;94312.97;;;12.76
67966;BMP280;54749;47.850;9.002;2023-03-14T10:15:31;94309.16;;;12.80
67966;BMP280;54749;47.850;9.002;2023-03-14T10:18:01;94299.47;;;12.83
67966;BMP280;54749;47.850;9.002;2023-03-14T10:20:38;94312.09;;;13.13
67966;BMP280;54749;47.850;9.002;2023-03-14T10:25:44;94311.88;;;14.51
67966;BMP280;54749;47.850;9.002;2023-03-14T10:28:32;94311.13;;;14.22
67966;BMP280;54749;47.850;9.002;2023-03-14T10:31:00;94319.66;;;13.57
67966;BMP280;54749;47.850;9.002;2023-03-14T10:33:32;94331.88;;;13.39
67966;BMP280;54749;47.850;9.002;2023-03-14T10:36:03;94335.63;;;13.07
67966;BMP280;54749;47.850;9.002;2023-03-14T10:38:32;94340.63;;;13.15
67966;BMP280;54749;47.850;9.002;2023-03-14T10:41:01;94353.06;;;13.02
67966;BMP280;54749;47.850;9.002;2023-03-14T10:43:33;94341.84;;;12.67
67966;BMP280;54749;47.850;9.002;2023-03-14T10:46:18;94349.19;;;12.55
67966;BMP280;54749;47.850;9.002;2023-03-14T10:49:05;94359.09;;;12.26
67966;BMP280;54749;47.850;9.002;2023-03-14T10:51:33;94364.06;;;11.97
67966;BMP280;54749;47.850;9.002;2023-03-14T10:54:12;94361.06;;;11.93
67966;BMP280;54749;47.850;9.002;2023-03-14T10:56:40;94364.38;;;12.02
67966;BMP280;54749;47.850;9.002;2023-03-14T10:59:12;94368.06;;;11.76
67966;BMP280;54749;47.850;9.002;2023-03-14T11:06:56;94381.88;;;10.94
67966;BMP280;54749;47.850;9.002;2023-03-14T11:09:41;94385.63;;;10.75
67966;BMP280;54749;47.850;9.002;2023-03-14T11:23:17;94413.91;;;10.38
67966;BMP280;54749;47.850;9.002;2023-03-14T11:28:49;94418.00;;;10.39
67966;BMP280;54749;47.850;9.002;2023-03-14T11:31:20;94413.91;;;10.46
67966;BMP280;54749;47.850;9.002;2023-03-14T11:36:56;94410.50;;;10.62
67966;BMP280;54749;47.850;9.002;2023-03-14T11:39:31;94419.69;;;10.63
67966;BMP280;54749;47.850;9.002;2023-03-14T11:42:01;94424.19;;;10.52
67966;BMP280;54749;47.850;9.002;2023-03-14T11:44:38;94427.41;;;10.29
67966;BMP280;54749;47.850;9.002;2023-03-14T11:50:19;94421.16;;;10.08
67966;BMP280;54749;47.850;9.002;2023-03-14T11:55:21;94415.13;;;9.84
67966;BMP280;54749;47.850;9.002;2023-03-14T11:57:51;94440.81;;;9.80
67966;BMP280;54749;47.850;9.002;2023-03-14T12:00:21;94426.81;;;9.85
67966;BMP280;54749;47.850;9.002;2023-03-14T12:05:35;94426.38;;;9.73
67966;BMP280;54749;47.850;9.002;2023-03-14T12:11:09;94433.44;;;9.52
67966;BMP280;54749;47.850;9.002;2023-03-14T12:13:39;94436.63;;;9.54
67966;BMP280;54749;47.850;9.002;2023-03-14T12:16:40;94438.94;;;9.65
67966;BMP280;54749;47.850;9.002;2023-03-14T12:21:57;94455.00;;;9.47
67966;BMP280;54749;47.850;9.002;2023-03-14T12:24:29;94423.97;;;9.46
67966;BMP280;54749;47.850;9.002;2023-03-14T12:27:03;94450.53;;;9.41
67966;BMP280;54749;47.850;9.002;2023-03-14T12:29:30;94443.47;;;9.27
67966;BMP280;54749;47.850;9.002;2023-03-14T12:34:41;94436.94;;;9.17
67966;BMP280;54749;47.850;9.002;2023-03-14T12:37:29;94448.06;;;9.15
67966;BMP280;54749;47.850;9.002;2023-03-14T12:45:45;94473.66;;;8.93
67966;BMP280;54749;47.850;9.002;2023-03-14T12:48:24;94483.53;;;8.87
67966;BMP280;54749;47.850;9.002;2023-03-14T12:50:56;94473.91;;;8.74
67966;BMP280;54749;47.850;9.002;2023-03-14T12:56:24;94490.88;;;8.98
67966;BMP280;54749;47.850;9.002;2023-03-14T13:02:47;94518.78;;;8.87
67966;BMP280;54749;47.850;9.002;2023-03-14T13:04:46;94565.53;;;8.63
67966;BMP280;54749;47.850;9.002;2023-03-14T13:10:24;94589.53;;;8.93
67966;BMP280;54749;47.850;9.002;2023-03-14T13:13:01;94593.84;;;9.10
67966;BMP280;54749;47.850;9.002;2023-03-14T13:15:31;94593.34;;;9.07
67966;BMP280;54749;47.850;9.002;2023-03-14T13:18:02;94619.94;;;9.18
67966;BMP280;54749;47.850;9.002;2023-03-14T13:20:34;94620.50;;;9.12
67966;BMP280;54749;47.850;9.002;2023-03-14T13:23:02;94637.59;;;9.09
67966;BMP280;54749;47.850;9.002;2023-03-14T13:25:33;94634.88;;;8.93
67966;BMP280;54749;47.850;9.002;2023-03-14T13:28:02;94654.28;;;8.74
67966;BMP280;54749;47.850;9.002;2023-03-14T13:30:40;94631.25;;;8.70
67966;BMP280;54749;47.850;9.002;2023-03-14T13:33:12;94656.28;;;8.71
67966;BMP280;54749;47.850;9.002;2023-03-14T13:35:43;94665.53;;;8.89
67966;BMP280;54749;47.850;9.002;2023-03-14T13:38:22;94663.00;;;8.89
67966;BMP280;54749;47.850;9.002;2023-03-14T13:40:51;94668.38;;;9.12
67966;BMP280;54749;47.850;9.002;2023-03-14T13:43:21;94683.72;;;9.28
67966;BMP280;54749;47.850;9.002;2023-03-14T13:45:56;94707.09;;;9.56
67966;BMP280;54749;47.850;9.002;2023-03-14T13:48:29;94690.59;;;10.14
67966;BMP280;54749;47.850;9.002;2023-03-14T13:51:05;94685.13;;;10.52
67966;BMP280;54749;47.850;9.002;2023-03-14T13:53:43;94693.72;;;10.59
67966;BMP280;54749;47.850;9.002;2023-03-14T13:56:11;94696.81;;;10.70
67966;BMP280;54749;47.850;9.002;2023-03-14T13:58:39;94705.84;;;10.73
67966;BMP280;54749;47.850;9.002;2023-03-14T14:01:16;94713.31;;;10.65
67966;BMP280;54749;47.850;9.002;2023-03-14T14:03:47;94710.97;;;10.47
67966;BMP280;54749;47.850;9.002;2023-03-14T14:06:26;94733.16;;;10.43
67966;BMP280;54749;47.850;9.002;2023-03-14T14:08:56;94734.13;;;10.25
67966;BMP280;54749;47.850;9.002;2023-03-14T14:11:48;94746.59;;;10.61
67966;BMP280;54749;47.850;9.002;2023-03-14T14:14:44;94720.69;;;10.93
67966;BMP280;54749;47.850;9.002;2023-03-14T14:17:21;94762.69;;;11.11
67966;BMP280;54749;47.850;9.002;2023-03-14T14:19:51;94755.75;;;11.30
67966;BMP280;54749;47.850;9.002;2023-03-14T14:22:19;94757.69;;;11.36
67966;BMP280;54749;47.850;9.002;2023-03-14T14:24:46;94759.50;;;11.09
67966;BMP280;54749;47.850;9.002;2023-03-14T14:32:46;94795.75;;;10.23
67966;BMP280;54749;47.850;9.002;2023-03-14T14:37:55;94831.03;;;9.80
67966;BMP280;54749;47.850;9.002;2023-03-14T14:40:25;94840.75;;;9.56
67966;BMP280;54749;47.850;9.002;2023-03-14T14:42:53;94835.25;;;9.70
67966;BMP280;54749;47.850;9.002;2023-03-14T14:45:22;94857.03;;;9.71
67966;BMP280;54749;47.850;9.002;2023-03-14T14:48:06;94849.47;;;9.62
67966;BMP280;54749;47.850;9.002;2023-03-14T14:55:59;94886.16;;;9.38
67966;BMP280;54749;47.850;9.002;2023-03-14T14:58:35;94885.22;;;9.29
67966;BMP280;54749;47.850;9.002;2023-03-14T15:01:10;94904.84;;;9.35
67966;BMP280;54749;47.850;9.002;2023-03-14T15:03:42;94894.66;;;9.37
67966;BMP280;54749;47.850;9.002;2023-03-14T15:06:12;94904.31;;;9.23
67966;BMP280;54749;47.850;9.002;2023-03-14T15:08:40;94907.91;;;9.11
67966;BMP280;54749;47.850;9.002;2023-03-14T15:11:14;94916.25;;;9.11
67966;BMP280;54749;47.850;9.002;2023-03-14T15:13:42;94912.81;;;9.12
67966;BMP280;54749;47.850;9.002;2023-03-14T15:16:15;94910.69;;;9.08
67966;BMP280;54749;47.850;9.002;2023-03-14T15:18:42;94914.16;;;9.16
67966;BMP280;54749;47.850;9.002;2023-03-14T15:21:10;94919.19;;;9.44
67966;BMP280;54749;47.850;9.002;2023-03-14T15:23:37;94913.34;;;9.80
67966;BMP280;54749;47.850;9.002;2023-03-14T15:26:25;94911.03;;;9.96
67966;BMP280;54749;47.850;9.002;2023-03-14T15:28:53;94910.41;;;9.94
67966;BMP280;54749;47.850;9.002;2023-03-14T15:31:20;94919.00;;;10.01
67966;BMP280;54749;47.850;9.002;2023-03-14T15:33:51;94917.84;;;9.96
67966;BMP280;54749;47.850;9.002;2023-03-14T15:36:29;94943.84;;;9.96
67966;BMP280;54749;47.850;9.002;2023-03-14T15:38:58;94925.13;;;9.98
67966;BMP280;54749;47.850;9.002;2023-03-14T15:41:26;94926.06;;;9.98
67966;BMP280;54749;47.850;9.002;2023-03-14T15:43:54;94926.03;;;10.07
67966;BMP280;54749;47.850;9.002;2023-03-14T15:46:22;94931.13;;;9.88
67966;BMP280;54749;47.850;9.002;2023-03-14T15:48:50;94919.28;;;9.70
67966;BMP280;54749;47.850;9.002;2023-03-14T15:51:18;94939.75;;;9.58
67966;BMP280;54749;47.850;9.002;2023-03-14T15:53:45;94942.16;;;9.50
67966;BMP280;54749;47.850;9.002;2023-03-14T15:56:15;94944.94;;;9.47
67966;BMP280;54749;47.850;9.002;2023-03-14T15:58:43;94939.50;;;9.43